Terminal Aerodrome Forecast
Issued by NWS

Home | Current Version | Previous Version | Text Only | Print | Product List | Glossary On
Versions: 1 2 3 4 5 6 7 8 9 10 11 12 13
000
FTUS46 KOTX 271140
TAFMWH
TAF
KMWH 271140Z 2712/2812 25010KT P6SM SCT100
     FM272000 22012G18KT P6SM SCT060
     FM280200 26011KT P6SM FEW050 SCT200
     FM280600 23005KT P6SM SCT150=

USA.gov is the U.S. government's official web portal to all federal, state and local government web resources and services.